sensor_id;sensor_type;location;lat;lon;timestamp;pressure;altitude;pressure_sealevel;temperature;humidity
13456;BME280;6800;50.940;6.940;2023-04-25T00:00:48;100260.31;;;17.84;39.81
13456;BME280;6800;50.940;6.940;2023-04-25T00:04:49;100268.66;;;17.89;40.19
13456;BME280;6800;50.940;6.940;2023-04-25T00:08:52;100272.94;;;17.90;39.45
13456;BME280;6800;50.940;6.940;2023-04-25T00:12:54;100269.59;;;17.88;39.56
13456;BME280;6800;50.940;6.940;2023-04-25T00:16:55;100267.66;;;17.90;39.73
13456;BME280;6800;50.940;6.940;2023-04-25T00:20:57;100264.88;;;17.91;39.21
13456;BME280;6800;50.940;6.940;2023-04-25T00:24:59;100272.56;;;17.75;39.57
13456;BME280;6800;50.940;6.940;2023-04-25T00:29:01;100266.63;;;17.64;39.73
13456;BME280;6800;50.940;6.940;2023-04-25T00:33:03;100264.00;;;17.45;39.69
13456;BME280;6800;50.940;6.940;2023-04-25T00:37:04;100274.44;;;17.56;39.67
13456;BME280;6800;50.940;6.940;2023-04-25T00:41:07;100274.13;;;17.40;40.21
13456;BME280;6800;50.940;6.940;2023-04-25T00:45:12;100266.75;;;17.43;40.23
13456;BME280;6800;50.940;6.940;2023-04-25T00:49:15;100268.03;;;17.30;40.57
13456;BME280;6800;50.940;6.940;2023-04-25T00:53:17;100263.88;;;17.37;40.17
13456;BME280;6800;50.940;6.940;2023-04-25T00:57:19;100257.91;;;17.25;40.49
13456;BME280;6800;50.940;6.940;2023-04-25T01:01:21;100258.59;;;17.17;40.41
13456;BME280;6800;50.940;6.940;2023-04-25T01:05:23;100258.88;;;17.05;40.72
13456;BME280;6800;50.940;6.940;2023-04-25T01:09:24;100279.13;;;16.95;40.89
13456;BME280;6800;50.940;6.940;2023-04-25T01:13:26;100274.25;;;16.90;41.04
13456;BME280;6800;50.940;6.940;2023-04-25T01:17:28;100278.28;;;16.85;41.24
13456;BME280;6800;50.940;6.940;2023-04-25T01:21:30;100269.94;;;16.80;41.64
13456;BME280;6800;50.940;6.940;2023-04-25T01:25:32;100279.94;;;16.76;41.54
13456;BME280;6800;50.940;6.940;2023-04-25T01:29:36;100280.75;;;16.67;41.45
13456;BME280;6800;50.940;6.940;2023-04-25T01:33:37;100281.03;;;16.64;41.87
13456;BME280;6800;50.940;6.940;2023-04-25T01:37:40;100281.88;;;16.74;41.67
13456;BME280;6800;50.940;6.940;2023-04-25T01:41:42;100292.72;;;16.41;42.34
13456;BME280;6800;50.940;6.940;2023-04-25T01:45:44;100295.31;;;16.62;42.08
13456;BME280;6800;50.940;6.940;2023-04-25T01:49:45;100295.72;;;16.57;41.78
13456;BME280;6800;50.940;6.940;2023-04-25T01:53:47;100300.13;;;16.57;41.79
13456;BME280;6800;50.940;6.940;2023-04-25T01:57:48;100293.91;;;16.58;41.80
13456;BME280;6800;50.940;6.940;2023-04-25T02:01:50;100293.84;;;16.08;43.09
13456;BME280;6800;50.940;6.940;2023-04-25T02:05:51;100298.56;;;16.45;41.68
13456;BME280;6800;50.940;6.940;2023-04-25T02:09:53;100298.69;;;16.43;42.10
13456;BME280;6800;50.940;6.940;2023-04-25T02:13:54;100297.56;;;16.36;42.07
13456;BME280;6800;50.940;6.940;2023-04-25T02:17:55;100304.38;;;16.48;41.92
13456;BME280;6800;50.940;6.940;2023-04-25T02:21:57;100300.50;;;16.42;41.82
13456;BME280;6800;50.940;6.940;2023-04-25T02:25:59;100292.22;;;16.17;42.52
13456;BME280;6800;50.940;6.940;2023-04-25T02:30:01;100297.16;;;16.40;42.09
13456;BME280;6800;50.940;6.940;2023-04-25T02:34:02;100289.81;;;16.44;41.73
13456;BME280;6800;50.940;6.940;2023-04-25T02:38:03;100290.38;;;16.48;42.19
13456;BME280;6800;50.940;6.940;2023-04-25T02:42:07;100290.88;;;16.32;42.25
13456;BME280;6800;50.940;6.940;2023-04-25T02:46:09;100300.28;;;16.65;41.59
13456;BME280;6800;50.940;6.940;2023-04-25T02:50:10;100286.56;;;16.61;41.59
13456;BME280;6800;50.940;6.940;2023-04-25T02:54:12;100286.44;;;16.82;40.99
13456;BME280;6800;50.940;6.940;2023-04-25T02:58:13;100294.63;;;16.69;41.19
13456;BME280;6800;50.940;6.940;2023-04-25T03:02:16;100294.94;;;16.95;40.81
13456;BME280;6800;50.940;6.940;2023-04-25T03:06:18;100288.13;;;16.92;41.26
13456;BME280;6800;50.940;6.940;2023-04-25T03:10:19;100297.97;;;16.90;40.92
13456;BME280;6800;50.940;6.940;2023-04-25T03:14:20;100300.28;;;16.65;41.72
13456;BME280;6800;50.940;6.940;2023-04-25T03:18:22;100301.59;;;16.89;41.22
13456;BME280;6800;50.940;6.940;2023-04-25T03:22:23;100299.53;;;17.02;41.05
13456;BME280;6800;50.940;6.940;2023-04-25T03:26:25;100298.56;;;16.94;41.57
13456;BME280;6800;50.940;6.940;2023-04-25T03:30:26;100289.00;;;17.02;41.18
13456;BME280;6800;50.940;6.940;2023-04-25T03:34:27;100294.81;;;16.96;41.56
13456;BME280;6800;50.940;6.940;2023-04-25T03:38:29;100295.09;;;17.22;40.77
13456;BME280;6800;50.940;6.940;2023-04-25T03:42:30;100297.03;;;17.20;41.02
13456;BME280;6800;50.940;6.940;2023-04-25T03:46:31;100289.97;;;17.21;40.85
13456;BME280;6800;50.940;6.940;2023-04-25T03:50:35;100297.47;;;17.35;40.89
13456;BME280;6800;50.940;6.940;2023-04-25T03:54:36;100298.16;;;17.27;41.26
13456;BME280;6800;50.940;6.940;2023-04-25T03:58:38;100294.41;;;17.39;40.96
13456;BME280;6800;50.940;6.940;2023-04-25T04:02:39;100304.53;;;17.05;41.21
13456;BME280;6800;50.940;6.940;2023-04-25T04:06:44;100318.81;;;17.03;41.71
13456;BME280;6800;50.940;6.940;2023-04-25T04:10:46;100317.97;;;16.93;41.87
13456;BME280;6800;50.940;6.940;2023-04-25T04:14:48;100322.16;;;17.24;41.69
13456;BME280;6800;50.940;6.940;2023-04-25T04:18:49;100325.66;;;17.15;41.66
13456;BME280;6800;50.940;6.940;2023-04-25T04:22:50;100325.63;;;17.05;41.54
13456;BME280;6800;50.940;6.940;2023-04-25T04:26:52;100322.44;;;17.11;41.78
13456;BME280;6800;50.940;6.940;2023-04-25T04:30:54;100329.25;;;17.33;40.87
13456;BME280;6800;50.940;6.940;2023-04-25T04:34:56;100334.53;;;17.33;41.07
13456;BME280;6800;50.940;6.940;2023-04-25T04:38:58;100343.72;;;17.39;40.85
13456;BME280;6800;50.940;6.940;2023-04-25T04:42:59;100344.00;;;17.45;40.74
13456;BME280;6800;50.940;6.940;2023-04-25T04:47:01;100343.75;;;17.58;40.79
13456;BME280;6800;50.940;6.940;2023-04-25T04:51:03;100351.34;;;17.42;40.99
13456;BME280;6800;50.940;6.940;2023-04-25T04:55:05;100364.81;;;17.48;40.95
13456;BME280;6800;50.940;6.940;2023-04-25T04:59:07;100366.25;;;17.52;40.79
13456;BME280;6800;50.940;6.940;2023-04-25T05:03:08;100377.75;;;17.61;41.07
13456;BME280;6800;50.940;6.940;2023-04-25T05:07:10;100373.56;;;17.49;40.95
13456;BME280;6800;50.940;6.940;2023-04-25T05:11:11;100380.53;;;17.50;41.47
13456;BME280;6800;50.940;6.940;2023-04-25T05:15:13;100391.94;;;17.69;40.87
13456;BME280;6800;50.940;6.940;2023-04-25T05:19:14;100386.06;;;17.28;41.27
13456;BME280;6800;50.940;6.940;2023-04-25T05:23:16;100389.44;;;17.87;41.99
13456;BME280;6800;50.940;6.940;2023-04-25T05:27:18;100389.50;;;18.24;39.75
13456;BME280;6800;50.940;6.940;2023-04-25T05:31:19;100404.16;;;17.80;40.10
13456;BME280;6800;50.940;6.940;2023-04-25T05:35:21;100394.88;;;18.41;39.44
13456;BME280;6800;50.940;6.940;2023-04-25T05:39:22;100403.78;;;18.40;39.70
13456;BME280;6800;50.940;6.940;2023-04-25T05:43:23;100407.13;;;18.42;38.91
13456;BME280;6800;50.940;6.940;2023-04-25T05:47:25;100410.66;;;18.24;39.47
13456;BME280;6800;50.940;6.940;2023-04-25T05:51:26;100416.25;;;18.94;38.15
13456;BME280;6800;50.940;6.940;2023-04-25T05:55:28;100422.88;;;18.81;38.07
13456;BME280;6800;50.940;6.940;2023-04-25T05:59:30;100426.13;;;19.02;38.06
13456;BME280;6800;50.940;6.940;2023-04-25T06:03:31;100431.09;;;18.78;38.06
13456;BME280;6800;50.940;6.940;2023-04-25T06:07:33;100430.72;;;18.63;38.10
13456;BME280;6800;50.940;6.940;2023-04-25T06:11:34;100440.13;;;18.85;37.72
13456;BME280;6800;50.940;6.940;2023-04-25T06:15:36;100432.50;;;19.36;36.38
13456;BME280;6800;50.940;6.940;2023-04-25T06:19:37;100431.22;;;20.36;34.55
13456;BME280;6800;50.940;6.940;2023-04-25T06:23:38;100427.81;;;20.44;34.58
13456;BME280;6800;50.940;6.940;2023-04-25T06:27:40;100434.06;;;20.68;34.24
13456;BME280;6800;50.940;6.940;2023-04-25T06:31:41;100438.16;;;20.55;33.94
13456;BME280;6800;50.940;6.940;2023-04-25T06:35:43;100437.63;;;20.51;33.42
13456;BME280;6800;50.940;6.940;2023-04-25T06:39:44;100432.06;;;19.93;34.73
13456;BME280;6800;50.940;6.940;2023-04-25T06:43:46;100437.16;;;20.30;34.22
13456;BME280;6800;50.940;6.940;2023-04-25T06:47:47;100439.44;;;20.51;33.97
13456;BME280;6800;50.940;6.940;2023-04-25T06:51:51;100433.91;;;21.37;32.71
13456;BME280;6800;50.940;6.940;2023-04-25T06:55:53;100444.81;;;22.00;31.37
13456;BME280;6800;50.940;6.940;2023-04-25T06:59:54;100446.41;;;23.74;29.19
13456;BME280;6800;50.940;6.940;2023-04-25T07:03:56;100437.25;;;23.76;29.20
13456;BME280;6800;50.940;6.940;2023-04-25T07:07:58;100448.56;;;23.56;28.38
13456;BME280;6800;50.940;6.940;2023-04-25T07:12:00;100452.00;;;23.25;28.48
13456;BME280;6800;50.940;6.940;2023-04-25T07:16:02;100454.72;;;23.17;29.07
13456;BME280;6800;50.940;6.940;2023-04-25T07:20:05;100459.94;;;23.95;27.67
13456;BME280;6800;50.940;6.940;2023-04-25T07:24:07;100459.03;;;23.80;27.99
13456;BME280;6800;50.940;6.940;2023-04-25T07:28:08;100468.97;;;23.86;27.35
13456;BME280;6800;50.940;6.940;2023-04-25T07:32:10;100471.34;;;23.19;27.92
13456;BME280;6800;50.940;6.940;2023-04-25T07:36:13;100472.03;;;22.59;28.22
13456;BME280;6800;50.940;6.940;2023-04-25T07:40:16;100472.09;;;22.97;28.19
13456;BME280;6800;50.940;6.940;2023-04-25T07:44:17;100481.47;;;22.85;28.37
13456;BME280;6800;50.940;6.940;2023-04-25T07:48:19;100489.00;;;22.17;28.25
13456;BME280;6800;50.940;6.940;2023-04-25T07:52:20;100481.50;;;23.16;26.91
13456;BME280;6800;50.940;6.940;2023-04-25T07:56:22;100477.28;;;23.91;26.38
13456;BME280;6800;50.940;6.940;2023-04-25T08:00:23;100490.03;;;24.26;26.34
13456;BME280;6800;50.940;6.940;2023-04-25T08:04:25;100496.16;;;23.59;26.60
13456;BME280;6800;50.940;6.940;2023-04-25T08:08:27;100494.06;;;23.77;27.10
13456;BME280;6800;50.940;6.940;2023-04-25T08:12:28;100502.69;;;24.10;26.76
13456;BME280;6800;50.940;6.940;2023-04-25T08:16:30;100511.66;;;24.54;25.40
13456;BME280;6800;50.940;6.940;2023-04-25T08:20:32;100511.03;;;24.66;24.96
13456;BME280;6800;50.940;6.940;2023-04-25T08:24:33;100524.91;;;24.25;25.41
13456;BME280;6800;50.940;6.940;2023-04-25T08:28:36;100524.66;;;23.89;25.30
13456;BME280;6800;50.940;6.940;2023-04-25T08:32:38;100541.59;;;23.35;26.07
13456;BME280;6800;50.940;6.940;2023-04-25T08:36:39;100535.56;;;24.47;25.33
13456;BME280;6800;50.940;6.940;2023-04-25T08:40:43;100541.13;;;25.92;23.32
13456;BME280;6800;50.940;6.940;2023-04-25T08:44:48;100546.84;;;25.24;22.92
13456;BME280;6800;50.940;6.940;2023-04-25T08:48:57;100555.72;;;25.89;22.83
13456;BME280;6800;50.940;6.940;2023-04-25T08:53:04;100563.41;;;23.99;23.48
13456;BME280;6800;50.940;6.940;2023-04-25T08:57:05;100570.53;;;23.29;24.21
13456;BME280;6800;50.940;6.940;2023-04-25T09:01:07;100563.16;;;23.86;23.75
13456;BME280;6800;50.940;6.940;2023-04-25T09:05:09;100589.56;;;23.18;25.16
13456;BME280;6800;50.940;6.940;2023-04-25T09:09:13;100603.41;;;22.49;26.01
13456;BME280;6800;50.940;6.940;2023-04-25T09:13:24;100595.16;;;20.76;28.14
13456;BME280;6800;50.940;6.940;2023-04-25T09:17:26;100603.47;;;21.92;26.89
13456;BME280;6800;50.940;6.940;2023-04-25T09:21:27;100609.97;;;21.63;27.29
13456;BME280;6800;50.940;6.940;2023-04-25T09:25:34;100611.44;;;21.24;27.71
13456;BME280;6800;50.940;6.940;2023-04-25T09:29:38;100609.19;;;21.37;27.51
13456;BME280;6800;50.940;6.940;2023-04-25T09:33:40;100615.47;;;21.70;27.22
13456;BME280;6800;50.940;6.940;2023-04-25T09:37:41;100623.50;;;22.20;25.61
13456;BME280;6800;50.940;6.940;2023-04-25T09:41:43;100625.41;;;22.02;25.81
13456;BME280;6800;50.940;6.940;2023-04-25T09:45:44;100632.16;;;22.38;24.70
13456;BME280;6800;50.940;6.940;2023-04-25T09:49:47;100619.97;;;20.32;27.54
13456;BME280;6800;50.940;6.940;2023-04-25T09:53:48;100638.03;;;21.32;26.63
13456;BME280;6800;50.940;6.940;2023-04-25T09:57:52;100633.53;;;21.84;26.00
13456;BME280;6800;50.940;6.940;2023-04-25T10:01:56;100639.16;;;21.89;26.08
13456;BME280;6800;50.940;6.940;2023-04-25T10:06:02;100649.25;;;20.83;27.19
13456;BME280;6800;50.940;6.940;2023-04-25T10:10:04;100655.06;;;20.61;27.39
13456;BME280;6800;50.940;6.940;2023-04-25T10:14:07;100660.63;;;20.13;28.66
13456;BME280;6800;50.940;6.940;2023-04-25T10:18:09;100669.28;;;20.25;28.72
13456;BME280;6800;50.940;6.940;2023-04-25T10:22:30;100672.47;;;20.81;27.64
13456;BME280;6800;50.940;6.940;2023-04-25T10:26:32;100675.13;;;21.16;27.05
13456;BME280;6800;50.940;6.940;2023-04-25T10:30:33;100669.50;;;20.84;27.51
13456;BME280;6800;50.940;6.940;2023-04-25T10:34:41;100673.13;;;21.18;27.37
13456;BME280;6800;50.940;6.940;2023-04-25T10:38:45;100677.72;;;21.93;26.50
13456;BME280;6800;50.940;6.940;2023-04-25T10:42:46;100675.31;;;23.93;23.55
13456;BME280;6800;50.940;6.940;2023-04-25T10:46:48;100668.16;;;24.24;22.39
13456;BME280;6800;50.940;6.940;2023-04-25T10:50:49;100672.84;;;22.96;23.91
13456;BME280;6800;50.940;6.940;2023-04-25T10:54:53;100665.03;;;22.29;24.93
13456;BME280;6800;50.940;6.940;2023-04-25T11:03:16;100679.19;;;21.28;26.56
13456;BME280;6800;50.940;6.940;2023-04-25T11:07:33;100675.16;;;21.24;26.27
13456;BME280;6800;50.940;6.940;2023-04-25T11:11:36;100677.19;;;21.30;26.57
13456;BME280;6800;50.940;6.940;2023-04-25T11:15:38;100680.25;;;21.18;26.10
13456;BME280;6800;50.940;6.940;2023-04-25T11:19:39;100682.47;;;20.87;26.35
13456;BME280;6800;50.940;6.940;2023-04-25T11:23:44;100676.00;;;21.25;24.43
13456;BME280;6800;50.940;6.940;2023-04-25T11:27:54;100680.22;;;21.35;24.89
13456;BME280;6800;50.940;6.940;2023-04-25T11:31:57;100675.16;;;22.17;25.18
13456;BME280;6800;50.940;6.940;2023-04-25T11:35:59;100684.50;;;22.21;24.57
13456;BME280;6800;50.940;6.940;2023-04-25T11:40:02;100675.47;;;22.64;24.26
13456;BME280;6800;50.940;6.940;2023-04-25T11:44:04;100673.91;;;24.66;22.24
13456;BME280;6800;50.940;6.940;2023-04-25T11:48:05;100659.56;;;26.29;20.87
13456;BME280;6800;50.940;6.940;2023-04-25T11:52:07;100661.06;;;24.93;20.89
13456;BME280;6800;50.940;6.940;2023-04-25T11:56:10;100667.19;;;24.78;21.16
13456;BME280;6800;50.940;6.940;2023-04-25T12:00:14;100661.69;;;25.17;19.81
13456;BME280;6800;50.940;6.940;2023-04-25T12:04:23;100664.44;;;26.26;19.12
13456;BME280;6800;50.940;6.940;2023-04-25T12:08:25;100665.88;;;25.78;18.77
13456;BME280;6800;50.940;6.940;2023-04-25T12:12:32;100683.31;;;25.74;19.20
13456;BME280;6800;50.940;6.940;2023-04-25T12:16:43;100678.56;;;24.95;19.15
13456;BME280;6800;50.940;6.940;2023-04-25T12:20:45;100686.75;;;24.10;19.38
13456;BME280;6800;50.940;6.940;2023-04-25T12:24:47;100680.16;;;25.04;18.36
13456;BME280;6800;50.940;6.940;2023-04-25T12:28:48;100677.19;;;24.23;19.53
13456;BME280;6800;50.940;6.940;2023-04-25T12:32:50;100687.31;;;23.89;20.25
13456;BME280;6800;50.940;6.940;2023-04-25T12:36:52;100690.44;;;23.29;21.49
13456;BME280;6800;50.940;6.940;2023-04-25T12:40:53;100702.19;;;22.46;22.08
13456;BME280;6800;50.940;6.940;2023-04-25T12:44:55;100703.91;;;23.52;20.83
13456;BME280;6800;50.940;6.940;2023-04-25T12:48:56;100708.75;;;22.68;21.43
13456;BME280;6800;50.940;6.940;2023-04-25T12:53:12;100719.09;;;23.27;21.23
13456;BME280;6800;50.940;6.940;2023-04-25T12:57:13;100716.34;;;22.55;22.21
13456;BME280;6800;50.940;6.940;2023-04-25T13:01:14;100712.31;;;22.43;23.26
13456;BME280;6800;50.940;6.940;2023-04-25T13:05:16;100723.72;;;22.27;23.15
13456;BME280;6800;50.940;6.940;2023-04-25T13:09:23;100733.63;;;21.50;24.08
13456;BME280;6800;50.940;6.940;2023-04-25T13:13:25;100722.63;;;21.70;24.10
13456;BME280;6800;50.940;6.940;2023-04-25T13:17:28;100721.94;;;22.44;22.95
13456;BME280;6800;50.940;6.940;2023-04-25T13:21:30;100726.16;;;21.53;22.30
13456;BME280;6800;50.940;6.940;2023-04-25T13:25:33;100718.88;;;21.55;21.88
13456;BME280;6800;50.940;6.940;2023-04-25T13:29:35;100717.66;;;21.24;22.11
13456;BME280;6800;50.940;6.940;2023-04-25T13:33:36;100722.78;;;21.69;21.78
13456;BME280;6800;50.940;6.940;2023-04-25T13:37:38;100730.59;;;21.70;21.71
13456;BME280;6800;50.940;6.940;2023-04-25T13:41:40;100727.28;;;21.25;21.87
13456;BME280;6800;50.940;6.940;2023-04-25T13:45:41;100734.13;;;21.10;21.88
13456;BME280;6800;50.940;6.940;2023-04-25T13:49:43;100725.09;;;20.85;22.25
13456;BME280;6800;50.940;6.940;2023-04-25T13:53:44;100733.16;;;21.54;21.97
13456;BME280;6800;50.940;6.940;2023-04-25T13:57:46;100732.44;;;20.91;22.44
13456;BME280;6800;50.940;6.940;2023-04-25T14:01:47;100727.69;;;20.95;21.97
13456;BME280;6800;50.940;6.940;2023-04-25T14:05:49;100721.22;;;20.80;21.87
13456;BME280;6800;50.940;6.940;2023-04-25T14:09:50;100738.66;;;21.35;21.45
13456;BME280;6800;50.940;6.940;2023-04-25T14:13:52;100722.22;;;21.14;22.22
13456;BME280;6800;50.940;6.940;2023-04-25T14:17:53;100714.69;;;21.53;21.75
13456;BME280;6800;50.940;6.940;2023-04-25T14:21:55;100713.97;;;21.43;22.83
13456;BME280;6800;50.940;6.940;2023-04-25T14:25:57;100718.78;;;21.65;23.70
13456;BME280;6800;50.940;6.940;2023-04-25T14:29:58;100730.94;;;21.24;24.02
13456;BME280;6800;50.940;6.940;2023-04-25T14:34:00;100737.31;;;21.83;23.68
13456;BME280;6800;50.940;6.940;2023-04-25T14:38:01;100725.53;;;21.59;22.06
13456;BME280;6800;50.940;6.940;2023-04-25T14:42:02;100740.88;;;21.22;21.22
13456;BME280;6800;50.940;6.940;2023-04-25T14:46:04;100749.50;;;21.42;21.00
13456;BME280;6800;50.940;6.940;2023-04-25T14:50:06;100753.47;;;21.03;21.72
13456;BME280;6800;50.940;6.940;2023-04-25T14:54:09;100760.78;;;20.91;22.97
13456;BME280;6800;50.940;6.940;2023-04-25T14:58:12;100766.97;;;21.27;23.40
13456;BME280;6800;50.940;6.940;2023-04-25T15:02:13;100758.75;;;20.85;23.99
13456;BME280;6800;50.940;6.940;2023-04-25T15:06:15;100749.16;;;21.62;23.62
13456;BME280;6800;50.940;6.940;2023-04-25T15:10:17;100765.97;;;21.45;23.82
13456;BME280;6800;50.940;6.940;2023-04-25T15:14:19;100765.78;;;20.76;24.61
13456;BME280;6800;50.940;6.940;2023-04-25T15:18:21;100760.66;;;20.92;25.72
13456;BME280;6800;50.940;6.940;2023-04-25T15:22:24;100767.16;;;20.98;25.16
13456;BME280;6800;50.940;6.940;2023-04-25T15:26:26;100768.31;;;20.78;23.13
13456;BME280;6800;50.940;6.940;2023-04-25T15:30:28;100766.91;;;20.19;23.97
13456;BME280;6800;50.940;6.940;2023-04-25T15:34:29;100770.59;;;20.46;24.12
13456;BME280;6800;50.940;6.940;2023-04-25T15:38:31;100765.66;;;20.78;23.65
13456;BME280;6800;50.940;6.940;2023-04-25T15:42:32;100773.06;;;20.74;24.04
13456;BME280;6800;50.940;6.940;2023-04-25T15:46:33;100774.19;;;20.27;24.97
13456;BME280;6800;50.940;6.940;2023-04-25T15:50:35;100778.22;;;21.03;24.14
13456;BME280;6800;50.940;6.940;2023-04-25T15:54:37;100775.06;;;20.90;24.34
13456;BME280;6800;50.940;6.940;2023-04-25T15:58:38;100783.06;;;21.08;24.29
13456;BME280;6800;50.940;6.940;2023-04-25T16:02:41;100778.44;;;21.53;24.03
13456;BME280;6800;50.940;6.940;2023-04-25T16:06:43;100783.31;;;20.87;25.34
13456;BME280;6800;50.940;6.940;2023-04-25T16:10:45;100775.66;;;20.84;25.66
13456;BME280;6800;50.940;6.940;2023-04-25T16:14:46;100779.69;;;21.41;25.40
13456;BME280;6800;50.940;6.940;2023-04-25T16:18:48;100783.34;;;21.65;24.72
13456;BME280;6800;50.940;6.940;2023-04-25T16:22:49;100781.00;;;21.19;24.42
13456;BME280;6800;50.940;6.940;2023-04-25T16:26:51;100780.13;;;21.54;23.70
13456;BME280;6800;50.940;6.940;2023-04-25T16:30:52;100779.06;;;21.04;23.85
13456;BME280;6800;50.940;6.940;2023-04-25T16:34:53;100784.06;;;20.79;23.82
13456;BME280;6800;50.940;6.940;2023-04-25T16:38:58;100784.19;;;20.60;24.25
13456;BME280;6800;50.940;6.940;2023-04-25T16:43:01;100795.25;;;20.56;24.96
13456;BME280;6800;50.940;6.940;2023-04-25T16:47:02;100789.69;;;20.49;25.54
13456;BME280;6800;50.940;6.940;2023-04-25T16:51:05;100791.56;;;20.39;26.23
13456;BME280;6800;50.940;6.940;2023-04-25T16:55:07;100788.66;;;20.60;26.18
13456;BME280;6800;50.940;6.940;2023-04-25T16:59:09;100788.91;;;21.29;25.41
13456;BME280;6800;50.940;6.940;2023-04-25T17:03:10;100799.59;;;20.10;26.48
13456;BME280;6800;50.940;6.940;2023-04-25T17:07:11;100791.38;;;20.50;26.05
13456;BME280;6800;50.940;6.940;2023-04-25T17:11:13;100792.59;;;19.82;26.43
13456;BME280;6800;50.940;6.940;2023-04-25T17:15:14;100801.00;;;20.14;26.34
13456;BME280;6800;50.940;6.940;2023-04-25T17:19:16;100799.47;;;20.12;26.14
13456;BME280;6800;50.940;6.940;2023-04-25T17:23:17;100805.91;;;20.46;25.69
13456;BME280;6800;50.940;6.940;2023-04-25T17:27:19;100814.78;;;20.18;26.04
13456;BME280;6800;50.940;6.940;2023-04-25T17:31:20;100812.63;;;20.04;25.96
13456;BME280;6800;50.940;6.940;2023-04-25T17:35:23;100821.78;;;19.44;26.55
13456;BME280;6800;50.940;6.940;2023-04-25T17:39:26;100821.34;;;19.10;27.48
13456;BME280;6800;50.940;6.940;2023-04-25T17:43:27;100827.91;;;19.64;26.72
13456;BME280;6800;50.940;6.940;2023-04-25T17:47:29;100838.78;;;19.61;26.68
13456;BME280;6800;50.940;6.940;2023-04-25T17:51:30;100848.09;;;19.17;27.85
13456;BME280;6800;50.940;6.940;2023-04-25T17:55:31;100850.59;;;19.76;27.06
13456;BME280;6800;50.940;6.940;2023-04-25T17:59:33;100849.28;;;18.84;26.87
13456;BME280;6800;50.940;6.940;2023-04-25T18:03:34;100854.53;;;19.43;26.66
13456;BME280;6800;50.940;6.940;2023-04-25T18:07:38;100856.78;;;19.38;27.11
13456;BME280;6800;50.940;6.940;2023-04-25T18:11:39;100859.44;;;18.89;27.75
13456;BME280;6800;50.940;6.940;2023-04-25T18:15:41;100874.25;;;19.10;27.86
13456;BME280;6800;50.940;6.940;2023-04-25T18:19:43;100873.00;;;19.24;27.94
13456;BME280;6800;50.940;6.940;2023-04-25T18:23:44;100873.16;;;19.32;27.52
13456;BME280;6800;50.940;6.940;2023-04-25T18:27:46;100880.31;;;19.41;27.48
13456;BME280;6800;50.940;6.940;2023-04-25T18:31:47;100879.56;;;19.20;28.17
13456;BME280;6800;50.940;6.940;2023-04-25T18:35:50;100884.44;;;19.15;28.20
13456;BME280;6800;50.940;6.940;2023-04-25T18:39:59;100883.84;;;19.02;28.22
13456;BME280;6800;50.940;6.940;2023-04-25T18:44:06;100891.75;;;18.92;28.17
13456;BME280;6800;50.940;6.940;2023-04-25T18:48:08;100900.69;;;19.01;28.17
13456;BME280;6800;50.940;6.940;2023-04-25T18:52:09;100907.88;;;18.80;28.16
13456;BME280;6800;50.940;6.940;2023-04-25T18:56:12;100910.66;;;18.27;28.86
13456;BME280;6800;50.940;6.940;2023-04-25T19:00:15;100918.53;;;18.38;28.40
13456;BME280;6800;50.940;6.940;2023-04-25T19:04:17;100923.50;;;18.32;27.92
13456;BME280;6800;50.940;6.940;2023-04-25T19:08:19;100934.81;;;18.64;27.45
13456;BME280;6800;50.940;6.940;2023-04-25T19:12:21;100944.75;;;18.10;28.39
13456;BME280;6800;50.940;6.940;2023-04-25T19:16:22;100943.66;;;18.12;28.72
13456;BME280;6800;50.940;6.940;2023-04-25T19:20:26;100947.19;;;18.22;28.55
13456;BME280;6800;50.940;6.940;2023-04-25T19:24:28;100951.59;;;18.12;28.82
13456;BME280;6800;50.940;6.940;2023-04-25T19:28:30;100946.69;;;18.08;29.28
13456;BME280;6800;50.940;6.940;2023-04-25T19:32:33;100956.97;;;17.90;29.74
13456;BME280;6800;50.940;6.940;2023-04-25T19:36:40;100949.03;;;17.90;30.23
13456;BME280;6800;50.940;6.940;2023-04-25T19:40:42;100955.91;;;17.50;30.45
13456;BME280;6800;50.940;6.940;2023-04-25T19:44:44;100970.06;;;17.60;31.13
13456;BME280;6800;50.940;6.940;2023-04-25T19:48:45;100972.44;;;17.63;30.89
13456;BME280;6800;50.940;6.940;2023-04-25T19:52:47;100966.09;;;17.65;31.12
13456;BME280;6800;50.940;6.940;2023-04-25T19:56:48;100971.84;;;17.70;31.08
13456;BME280;6800;50.940;6.940;2023-04-25T20:00:50;100974.56;;;17.69;31.48
13456;BME280;6800;50.940;6.940;2023-04-25T20:04:51;100981.91;;;17.65;31.12
13456;BME280;6800;50.940;6.940;2023-04-25T20:08:53;100977.00;;;17.61;31.33
13456;BME280;6800;50.940;6.940;2023-04-25T20:12:55;100980.84;;;17.68;31.24
13456;BME280;6800;50.940;6.940;2023-04-25T20:16:56;100989.97;;;17.64;31.03
13456;BME280;6800;50.940;6.940;2023-04-25T20:20:58;100993.81;;;17.49;31.64
13456;BME280;6800;50.940;6.940;2023-04-25T20:24:59;101003.88;;;17.44;31.79
13456;BME280;6800;50.940;6.940;2023-04-25T20:29:01;101002.09;;;17.33;32.05
13456;BME280;6800;50.940;6.940;2023-04-25T20:33:02;101005.13;;;17.51;31.69
13456;BME280;6800;50.940;6.940;2023-04-25T20:37:04;101002.50;;;17.06;32.41
13456;BME280;6800;50.940;6.940;2023-04-25T20:41:06;101005.97;;;17.29;32.28
13456;BME280;6800;50.940;6.940;2023-04-25T20:45:07;101009.81;;;17.25;32.33
13456;BME280;6800;50.940;6.940;2023-04-25T20:49:13;101010.41;;;17.17;32.50
13456;BME280;6800;50.940;6.940;2023-04-25T20:53:15;101008.72;;;17.05;32.89
13456;BME280;6800;50.940;6.940;2023-04-25T20:57:16;101017.72;;;17.14;32.59
13456;BME280;6800;50.940;6.940;2023-04-25T21:01:18;101013.78;;;17.08;32.51
13456;BME280;6800;50.940;6.940;2023-04-25T21:05:19;101016.16;;;17.11;32.36
13456;BME280;6800;50.940;6.940;2023-04-25T21:09:22;101015.69;;;17.06;32.53
13456;BME280;6800;50.940;6.940;2023-04-25T21:13:23;101023.47;;;16.97;32.83
13456;BME280;6800;50.940;6.940;2023-04-25T21:17:27;101025.75;;;16.79;33.00
13456;BME280;6800;50.940;6.940;2023-04-25T21:21:29;101038.94;;;16.79;33.33
13456;BME280;6800;50.940;6.940;2023-04-25T21:25:31;101034.97;;;16.74;33.54